sensor_id;sensor_type;location;lat;lon;timestamp;P1;durP1;ratioP1;P2;durP2;ratioP2
16954;SDS011;8594;52.052;8.354;2022-12-18T00:02:26;29.23;;;12.43;;
16954;SDS011;8594;52.052;8.354;2022-12-18T00:04:52;27.43;;;12.63;;
16954;SDS011;8594;52.052;8.354;2022-12-18T00:07:21;24.73;;;10.43;;
16954;SDS011;8594;52.052;8.354;2022-12-18T00:09:48;26.70;;;11.83;;
16954;SDS011;8594;52.052;8.354;2022-12-18T00:12:15;27.57;;;11.27;;
16954;SDS011;8594;52.052;8.354;2022-12-18T00:14:42;28.80;;;12.63;;
16954;SDS011;8594;52.052;8.354;2022-12-18T00:17:08;24.17;;;10.23;;
16954;SDS011;8594;52.052;8.354;2022-12-18T00:19:35;22.77;;;10.20;;
16954;SDS011;8594;52.052;8.354;2022-12-18T00:22:02;22.33;;;9.87;;
16954;SDS011;8594;52.052;8.354;2022-12-18T00:24:32;17.80;;;8.47;;
16954;SDS011;8594;52.052;8.354;2022-12-18T00:26:59;24.40;;;11.20;;
16954;SDS011;8594;52.052;8.354;2022-12-18T00:29:26;19.70;;;8.30;;
16954;SDS011;8594;52.052;8.354;2022-12-18T00:31:53;17.77;;;8.57;;
16954;SDS011;8594;52.052;8.354;2022-12-18T00:34:20;16.67;;;8.10;;
16954;SDS011;8594;52.052;8.354;2022-12-18T00:36:47;15.57;;;6.90;;
16954;SDS011;8594;52.052;8.354;2022-12-18T00:39:14;18.57;;;6.83;;
16954;SDS011;8594;52.052;8.354;2022-12-18T00:41:43;17.07;;;7.23;;
16954;SDS011;8594;52.052;8.354;2022-12-18T00:44:39;18.40;;;7.60;;
16954;SDS011;8594;52.052;8.354;2022-12-18T00:47:06;20.03;;;11.10;;
16954;SDS011;8594;52.052;8.354;2022-12-18T00:49:33;15.77;;;7.50;;
16954;SDS011;8594;52.052;8.354;2022-12-18T00:52:00;14.67;;;6.90;;
16954;SDS011;8594;52.052;8.354;2022-12-18T00:54:27;13.20;;;6.30;;
16954;SDS011;8594;52.052;8.354;2022-12-18T00:56:55;16.40;;;7.27;;
16954;SDS011;8594;52.052;8.354;2022-12-18T00:59:22;14.73;;;7.40;;
16954;SDS011;8594;52.052;8.354;2022-12-18T01:01:49;12.77;;;6.83;;
16954;SDS011;8594;52.052;8.354;2022-12-18T01:04:16;21.27;;;7.83;;
16954;SDS011;8594;52.052;8.354;2022-12-18T01:06:43;15.90;;;6.57;;
16954;SDS011;8594;52.052;8.354;2022-12-18T01:09:10;13.93;;;7.10;;
16954;SDS011;8594;52.052;8.354;2022-12-18T01:11:37;17.00;;;6.57;;
16954;SDS011;8594;52.052;8.354;2022-12-18T01:14:05;18.70;;;8.17;;
16954;SDS011;8594;52.052;8.354;2022-12-18T01:16:32;16.40;;;7.70;;
16954;SDS011;8594;52.052;8.354;2022-12-18T01:19:00;14.17;;;7.63;;
16954;SDS011;8594;52.052;8.354;2022-12-18T01:21:27;15.57;;;7.03;;
16954;SDS011;8594;52.052;8.354;2022-12-18T01:23:54;17.10;;;7.47;;
16954;SDS011;8594;52.052;8.354;2022-12-18T01:26:23;15.30;;;8.07;;
16954;SDS011;8594;52.052;8.354;2022-12-18T01:28:54;14.60;;;7.10;;
16954;SDS011;8594;52.052;8.354;2022-12-18T01:31:24;13.30;;;6.73;;
16954;SDS011;8594;52.052;8.354;2022-12-18T01:33:54;15.57;;;7.93;;
16954;SDS011;8594;52.052;8.354;2022-12-18T01:36:22;16.63;;;7.90;;
16954;SDS011;8594;52.052;8.354;2022-12-18T01:38:51;14.03;;;7.23;;
16954;SDS011;8594;52.052;8.354;2022-12-18T01:41:20;13.07;;;6.47;;
16954;SDS011;8594;52.052;8.354;2022-12-18T01:43:51;12.70;;;7.03;;
16954;SDS011;8594;52.052;8.354;2022-12-18T01:46:22;15.67;;;7.10;;
16954;SDS011;8594;52.052;8.354;2022-12-18T01:48:52;11.57;;;5.97;;
16954;SDS011;8594;52.052;8.354;2022-12-18T01:51:24;10.57;;;6.27;;
16954;SDS011;8594;52.052;8.354;2022-12-18T01:53:55;15.87;;;6.30;;
16954;SDS011;8594;52.052;8.354;2022-12-18T01:56:25;14.53;;;6.80;;
16954;SDS011;8594;52.052;8.354;2022-12-18T01:58:54;12.27;;;6.70;;
16954;SDS011;8594;52.052;8.354;2022-12-18T02:01:28;10.80;;;5.93;;
16954;SDS011;8594;52.052;8.354;2022-12-18T02:04:13;16.77;;;7.70;;
16954;SDS011;8594;52.052;8.354;2022-12-18T02:06:46;10.80;;;6.43;;
16954;SDS011;8594;52.052;8.354;2022-12-18T02:09:26;16.03;;;6.20;;
16954;SDS011;8594;52.052;8.354;2022-12-18T02:12:00;10.67;;;5.87;;
16954;SDS011;8594;52.052;8.354;2022-12-18T02:14:37;12.17;;;5.93;;
16954;SDS011;8594;52.052;8.354;2022-12-18T02:17:13;13.83;;;6.47;;
16954;SDS011;8594;52.052;8.354;2022-12-18T02:19:48;13.03;;;6.63;;
16954;SDS011;8594;52.052;8.354;2022-12-18T02:22:34;13.53;;;5.90;;
16954;SDS011;8594;52.052;8.354;2022-12-18T02:25:18;13.27;;;6.37;;
16954;SDS011;8594;52.052;8.354;2022-12-18T02:28:06;13.60;;;6.43;;
16954;SDS011;8594;52.052;8.354;2022-12-18T02:30:39;13.37;;;6.13;;
16954;SDS011;8594;52.052;8.354;2022-12-18T02:33:10;11.07;;;5.50;;
16954;SDS011;8594;52.052;8.354;2022-12-18T02:35:40;9.53;;;5.03;;
16954;SDS011;8594;52.052;8.354;2022-12-18T02:38:08;13.00;;;5.80;;
16954;SDS011;8594;52.052;8.354;2022-12-18T02:40:36;12.47;;;5.97;;
16954;SDS011;8594;52.052;8.354;2022-12-18T02:43:08;16.53;;;6.67;;
16954;SDS011;8594;52.052;8.354;2022-12-18T02:45:36;11.03;;;5.87;;
16954;SDS011;8594;52.052;8.354;2022-12-18T02:48:13;11.03;;;5.50;;
16954;SDS011;8594;52.052;8.354;2022-12-18T02:50:43;10.20;;;5.30;;
16954;SDS011;8594;52.052;8.354;2022-12-18T02:53:23;10.07;;;5.47;;
16954;SDS011;8594;52.052;8.354;2022-12-18T02:55:58;10.77;;;6.00;;
16954;SDS011;8594;52.052;8.354;2022-12-18T02:58:40;10.67;;;5.77;;
16954;SDS011;8594;52.052;8.354;2022-12-18T03:01:16;11.63;;;5.43;;
16954;SDS011;8594;52.052;8.354;2022-12-18T03:03:50;14.63;;;5.70;;
16954;SDS011;8594;52.052;8.354;2022-12-18T03:06:24;10.40;;;5.30;;
16954;SDS011;8594;52.052;8.354;2022-12-18T03:08:56;12.40;;;5.90;;
16954;SDS011;8594;52.052;8.354;2022-12-18T03:11:28;12.17;;;5.67;;
16954;SDS011;8594;52.052;8.354;2022-12-18T03:14:20;13.67;;;5.37;;
16954;SDS011;8594;52.052;8.354;2022-12-18T03:16:52;11.73;;;5.90;;
16954;SDS011;8594;52.052;8.354;2022-12-18T03:19:24;12.93;;;5.87;;
16954;SDS011;8594;52.052;8.354;2022-12-18T03:21:56;9.67;;;5.20;;
16954;SDS011;8594;52.052;8.354;2022-12-18T03:24:26;11.17;;;5.83;;
16954;SDS011;8594;52.052;8.354;2022-12-18T03:26:57;12.20;;;5.63;;
16954;SDS011;8594;52.052;8.354;2022-12-18T03:29:33;11.73;;;6.13;;
16954;SDS011;8594;52.052;8.354;2022-12-18T03:32:06;12.87;;;6.07;;
16954;SDS011;8594;52.052;8.354;2022-12-18T03:34:38;16.20;;;6.53;;
16954;SDS011;8594;52.052;8.354;2022-12-18T03:37:08;15.60;;;6.87;;
16954;SDS011;8594;52.052;8.354;2022-12-18T03:39:36;12.00;;;5.80;;
16954;SDS011;8594;52.052;8.354;2022-12-18T03:42:05;9.17;;;6.03;;
16954;SDS011;8594;52.052;8.354;2022-12-18T03:44:42;10.63;;;5.50;;
16954;SDS011;8594;52.052;8.354;2022-12-18T03:47:20;11.03;;;5.27;;
16954;SDS011;8594;52.052;8.354;2022-12-18T03:49:56;11.83;;;5.53;;
16954;SDS011;8594;52.052;8.354;2022-12-18T03:52:34;10.60;;;5.73;;
16954;SDS011;8594;52.052;8.354;2022-12-18T03:55:07;13.57;;;6.20;;
16954;SDS011;8594;52.052;8.354;2022-12-18T03:57:36;10.43;;;5.77;;
16954;SDS011;8594;52.052;8.354;2022-12-18T04:00:08;12.90;;;5.93;;
16954;SDS011;8594;52.052;8.354;2022-12-18T04:02:39;12.20;;;5.07;;
16954;SDS011;8594;52.052;8.354;2022-12-18T04:05:13;8.93;;;5.10;;
16954;SDS011;8594;52.052;8.354;2022-12-18T04:07:41;12.53;;;5.50;;
16954;SDS011;8594;52.052;8.354;2022-12-18T04:10:11;12.40;;;5.13;;
16954;SDS011;8594;52.052;8.354;2022-12-18T04:12:40;13.63;;;5.47;;
16954;SDS011;8594;52.052;8.354;2022-12-18T04:15:09;9.90;;;5.20;;
16954;SDS011;8594;52.052;8.354;2022-12-18T04:17:37;8.67;;;4.30;;
16954;SDS011;8594;52.052;8.354;2022-12-18T04:20:08;7.87;;;4.27;;
16954;SDS011;8594;52.052;8.354;2022-12-18T04:22:36;7.70;;;4.20;;
16954;SDS011;8594;52.052;8.354;2022-12-18T04:25:03;8.67;;;4.60;;
16954;SDS011;8594;52.052;8.354;2022-12-18T04:27:31;8.80;;;4.43;;
16954;SDS011;8594;52.052;8.354;2022-12-18T04:29:58;7.80;;;4.67;;
16954;SDS011;8594;52.052;8.354;2022-12-18T04:32:26;8.73;;;4.20;;
16954;SDS011;8594;52.052;8.354;2022-12-18T04:34:53;7.03;;;3.47;;
16954;SDS011;8594;52.052;8.354;2022-12-18T04:37:20;12.37;;;4.80;;
16954;SDS011;8594;52.052;8.354;2022-12-18T04:39:47;10.90;;;4.83;;
16954;SDS011;8594;52.052;8.354;2022-12-18T04:42:14;9.70;;;4.37;;
16954;SDS011;8594;52.052;8.354;2022-12-18T04:44:40;10.57;;;4.87;;
16954;SDS011;8594;52.052;8.354;2022-12-18T04:47:07;8.70;;;4.50;;
16954;SDS011;8594;52.052;8.354;2022-12-18T04:49:36;12.40;;;5.03;;
16954;SDS011;8594;52.052;8.354;2022-12-18T04:52:03;9.90;;;5.00;;
16954;SDS011;8594;52.052;8.354;2022-12-18T04:54:30;10.07;;;5.10;;
16954;SDS011;8594;52.052;8.354;2022-12-18T04:56:57;11.43;;;5.00;;
16954;SDS011;8594;52.052;8.354;2022-12-18T04:59:24;10.93;;;4.67;;
16954;SDS011;8594;52.052;8.354;2022-12-18T05:01:50;10.30;;;5.07;;
16954;SDS011;8594;52.052;8.354;2022-12-18T05:04:18;7.67;;;4.40;;
16954;SDS011;8594;52.052;8.354;2022-12-18T05:06:46;14.03;;;5.07;;
16954;SDS011;8594;52.052;8.354;2022-12-18T05:09:13;16.40;;;6.33;;
16954;SDS011;8594;52.052;8.354;2022-12-18T05:11:40;10.67;;;5.70;;
16954;SDS011;8594;52.052;8.354;2022-12-18T05:14:07;9.60;;;5.33;;
16954;SDS011;8594;52.052;8.354;2022-12-18T05:16:34;11.77;;;4.93;;
16954;SDS011;8594;52.052;8.354;2022-12-18T05:19:01;10.23;;;4.73;;
16954;SDS011;8594;52.052;8.354;2022-12-18T05:21:28;9.00;;;4.67;;
16954;SDS011;8594;52.052;8.354;2022-12-18T05:23:56;10.93;;;5.40;;
16954;SDS011;8594;52.052;8.354;2022-12-18T05:26:23;10.37;;;4.63;;
16954;SDS011;8594;52.052;8.354;2022-12-18T05:28:50;11.17;;;4.83;;
16954;SDS011;8594;52.052;8.354;2022-12-18T05:31:17;15.57;;;6.97;;
16954;SDS011;8594;52.052;8.354;2022-12-18T05:33:44;11.70;;;5.10;;
16954;SDS011;8594;52.052;8.354;2022-12-18T05:36:11;9.73;;;5.17;;
16954;SDS011;8594;52.052;8.354;2022-12-18T05:38:38;11.27;;;4.93;;
16954;SDS011;8594;52.052;8.354;2022-12-18T05:41:08;12.47;;;6.20;;
16954;SDS011;8594;52.052;8.354;2022-12-18T05:43:36;11.93;;;5.90;;
16954;SDS011;8594;52.052;8.354;2022-12-18T05:46:05;12.80;;;5.77;;
16954;SDS011;8594;52.052;8.354;2022-12-18T05:48:34;13.43;;;6.53;;
16954;SDS011;8594;52.052;8.354;2022-12-18T05:51:05;12.67;;;6.00;;
16954;SDS011;8594;52.052;8.354;2022-12-18T05:53:35;14.70;;;6.10;;
16954;SDS011;8594;52.052;8.354;2022-12-18T05:56:04;14.97;;;6.50;;
16954;SDS011;8594;52.052;8.354;2022-12-18T05:58:39;15.83;;;6.37;;
16954;SDS011;8594;52.052;8.354;2022-12-18T06:01:08;12.60;;;6.03;;
16954;SDS011;8594;52.052;8.354;2022-12-18T06:03:37;16.83;;;6.27;;
16954;SDS011;8594;52.052;8.354;2022-12-18T06:06:11;17.47;;;6.87;;
16954;SDS011;8594;52.052;8.354;2022-12-18T06:08:40;13.90;;;6.13;;
16954;SDS011;8594;52.052;8.354;2022-12-18T06:11:08;15.57;;;6.60;;
16954;SDS011;8594;52.052;8.354;2022-12-18T06:13:36;14.13;;;6.57;;
16954;SDS011;8594;52.052;8.354;2022-12-18T06:16:04;14.77;;;7.30;;
16954;SDS011;8594;52.052;8.354;2022-12-18T06:18:31;20.43;;;8.07;;
16954;SDS011;8594;52.052;8.354;2022-12-18T06:20:59;13.93;;;7.00;;
16954;SDS011;8594;52.052;8.354;2022-12-18T06:23:27;15.70;;;8.00;;
16954;SDS011;8594;52.052;8.354;2022-12-18T06:25:54;16.60;;;7.53;;
16954;SDS011;8594;52.052;8.354;2022-12-18T06:28:22;19.93;;;8.23;;
16954;SDS011;8594;52.052;8.354;2022-12-18T06:30:49;24.40;;;13.03;;
16954;SDS011;8594;52.052;8.354;2022-12-18T06:33:16;22.07;;;8.70;;
16954;SDS011;8594;52.052;8.354;2022-12-18T06:35:43;22.37;;;10.60;;
16954;SDS011;8594;52.052;8.354;2022-12-18T06:38:10;21.93;;;9.37;;
16954;SDS011;8594;52.052;8.354;2022-12-18T06:40:37;17.37;;;8.00;;
16954;SDS011;8594;52.052;8.354;2022-12-18T06:43:05;18.37;;;8.27;;
16954;SDS011;8594;52.052;8.354;2022-12-18T06:45:34;18.47;;;8.97;;
16954;SDS011;8594;52.052;8.354;2022-12-18T06:48:01;17.60;;;7.30;;
16954;SDS011;8594;52.052;8.354;2022-12-18T06:50:28;16.20;;;7.87;;
16954;SDS011;8594;52.052;8.354;2022-12-18T06:52:55;19.50;;;7.93;;
16954;SDS011;8594;52.052;8.354;2022-12-18T06:55:22;17.53;;;8.77;;
16954;SDS011;8594;52.052;8.354;2022-12-18T06:57:49;17.47;;;8.03;;
16954;SDS011;8594;52.052;8.354;2022-12-18T07:00:16;15.63;;;6.70;;
16954;SDS011;8594;52.052;8.354;2022-12-18T07:02:45;17.47;;;7.73;;
16954;SDS011;8594;52.052;8.354;2022-12-18T07:05:12;12.20;;;6.60;;
16954;SDS011;8594;52.052;8.354;2022-12-18T07:07:40;18.17;;;7.93;;
16954;SDS011;8594;52.052;8.354;2022-12-18T07:10:07;17.33;;;7.17;;
16954;SDS011;8594;52.052;8.354;2022-12-18T07:12:37;19.47;;;7.23;;
16954;SDS011;8594;52.052;8.354;2022-12-18T07:15:05;16.77;;;7.20;;
16954;SDS011;8594;52.052;8.354;2022-12-18T07:17:33;16.33;;;7.57;;
16954;SDS011;8594;52.052;8.354;2022-12-18T07:20:02;12.47;;;6.47;;
16954;SDS011;8594;52.052;8.354;2022-12-18T07:22:29;17.60;;;7.13;;
16954;SDS011;8594;52.052;8.354;2022-12-18T07:24:56;12.37;;;6.17;;
16954;SDS011;8594;52.052;8.354;2022-12-18T07:27:23;13.23;;;5.73;;
16954;SDS011;8594;52.052;8.354;2022-12-18T07:29:50;14.93;;;6.37;;
16954;SDS011;8594;52.052;8.354;2022-12-18T07:32:17;15.40;;;5.90;;
16954;SDS011;8594;52.052;8.354;2022-12-18T07:34:44;13.47;;;5.93;;
16954;SDS011;8594;52.052;8.354;2022-12-18T07:37:13;15.73;;;6.20;;
16954;SDS011;8594;52.052;8.354;2022-12-18T07:39:40;12.87;;;5.77;;
16954;SDS011;8594;52.052;8.354;2022-12-18T07:42:07;10.23;;;5.40;;
16954;SDS011;8594;52.052;8.354;2022-12-18T07:44:51;13.17;;;5.43;;
16954;SDS011;8594;52.052;8.354;2022-12-18T07:47:18;16.13;;;5.87;;
16954;SDS011;8594;52.052;8.354;2022-12-18T07:49:45;11.63;;;5.33;;
16954;SDS011;8594;52.052;8.354;2022-12-18T07:52:13;11.93;;;5.77;;
16954;SDS011;8594;52.052;8.354;2022-12-18T07:54:40;14.77;;;5.50;;
16954;SDS011;8594;52.052;8.354;2022-12-18T07:57:08;14.93;;;6.13;;
16954;SDS011;8594;52.052;8.354;2022-12-18T07:59:35;11.93;;;5.43;;
16954;SDS011;8594;52.052;8.354;2022-12-18T08:02:02;13.03;;;5.03;;
16954;SDS011;8594;52.052;8.354;2022-12-18T08:04:29;15.40;;;6.10;;
16954;SDS011;8594;52.052;8.354;2022-12-18T08:06:56;16.17;;;6.73;;
16954;SDS011;8594;52.052;8.354;2022-12-18T08:09:24;14.07;;;6.63;;
16954;SDS011;8594;52.052;8.354;2022-12-18T08:11:51;13.70;;;6.20;;
16954;SDS011;8594;52.052;8.354;2022-12-18T08:14:18;12.80;;;5.50;;
16954;SDS011;8594;52.052;8.354;2022-12-18T08:16:45;11.13;;;5.60;;
16954;SDS011;8594;52.052;8.354;2022-12-18T08:19:12;12.43;;;5.77;;
16954;SDS011;8594;52.052;8.354;2022-12-18T08:21:39;12.57;;;4.80;;
16954;SDS011;8594;52.052;8.354;2022-12-18T08:24:06;8.67;;;4.23;;
16954;SDS011;8594;52.052;8.354;2022-12-18T08:26:37;7.17;;;4.30;;
16954;SDS011;8594;52.052;8.354;2022-12-18T08:29:04;11.70;;;5.03;;
16954;SDS011;8594;52.052;8.354;2022-12-18T08:31:31;11.40;;;4.93;;
16954;SDS011;8594;52.052;8.354;2022-12-18T08:33:58;11.00;;;4.37;;
16954;SDS011;8594;52.052;8.354;2022-12-18T08:36:25;10.10;;;4.80;;
16954;SDS011;8594;52.052;8.354;2022-12-18T08:38:52;11.97;;;4.60;;
16954;SDS011;8594;52.052;8.354;2022-12-18T08:41:20;10.50;;;5.00;;
16954;SDS011;8594;52.052;8.354;2022-12-18T08:43:48;11.23;;;5.10;;
16954;SDS011;8594;52.052;8.354;2022-12-18T08:46:34;7.73;;;4.37;;
16954;SDS011;8594;52.052;8.354;2022-12-18T08:49:06;8.83;;;4.10;;
16954;SDS011;8594;52.052;8.354;2022-12-18T08:51:35;13.47;;;5.37;;
16954;SDS011;8594;52.052;8.354;2022-12-18T08:54:02;9.33;;;4.60;;
16954;SDS011;8594;52.052;8.354;2022-12-18T08:56:30;8.80;;;4.73;;
16954;SDS011;8594;52.052;8.354;2022-12-18T08:58:59;10.53;;;4.93;;
16954;SDS011;8594;52.052;8.354;2022-12-18T09:01:26;11.40;;;5.17;;
16954;SDS011;8594;52.052;8.354;2022-12-18T09:03:53;9.20;;;4.60;;
16954;SDS011;8594;52.052;8.354;2022-12-18T09:06:20;10.57;;;4.93;;
16954;SDS011;8594;52.052;8.354;2022-12-18T09:08:48;12.00;;;6.20;;
16954;SDS011;8594;52.052;8.354;2022-12-18T09:11:19;10.97;;;5.43;;
16954;SDS011;8594;52.052;8.354;2022-12-18T09:13:48;12.77;;;5.40;;
16954;SDS011;8594;52.052;8.354;2022-12-18T09:16:18;11.87;;;5.77;;
16954;SDS011;8594;52.052;8.354;2022-12-18T09:18:45;11.67;;;4.83;;
16954;SDS011;8594;52.052;8.354;2022-12-18T09:21:14;7.87;;;4.10;;
16954;SDS011;8594;52.052;8.354;2022-12-18T09:23:43;9.50;;;4.53;;
16954;SDS011;8594;52.052;8.354;2022-12-18T09:26:15;9.67;;;5.10;;
16954;SDS011;8594;52.052;8.354;2022-12-18T09:28:43;10.83;;;4.87;;
16954;SDS011;8594;52.052;8.354;2022-12-18T09:31:11;12.37;;;5.53;;
16954;SDS011;8594;52.052;8.354;2022-12-18T09:33:40;10.30;;;5.20;;
16954;SDS011;8594;52.052;8.354;2022-12-18T09:36:09;11.10;;;5.10;;
16954;SDS011;8594;52.052;8.354;2022-12-18T09:38:40;13.30;;;5.43;;
16954;SDS011;8594;52.052;8.354;2022-12-18T09:41:14;11.80;;;5.40;;
16954;SDS011;8594;52.052;8.354;2022-12-18T09:44:00;10.20;;;5.07;;
16954;SDS011;8594;52.052;8.354;2022-12-18T09:46:36;8.50;;;4.63;;
16954;SDS011;8594;52.052;8.354;2022-12-18T09:49:13;12.13;;;6.20;;
16954;SDS011;8594;52.052;8.354;2022-12-18T09:51:44;13.27;;;5.50;;
16954;SDS011;8594;52.052;8.354;2022-12-18T09:54:18;14.90;;;5.47;;
16954;SDS011;8594;52.052;8.354;2022-12-18T09:56:51;8.37;;;5.13;;
16954;SDS011;8594;52.052;8.354;2022-12-18T09:59:21;9.33;;;5.07;;
16954;SDS011;8594;52.052;8.354;2022-12-18T10:01:51;10.57;;;4.97;;
16954;SDS011;8594;52.052;8.354;2022-12-18T10:04:19;12.17;;;4.70;;
16954;SDS011;8594;52.052;8.354;2022-12-18T10:06:49;12.67;;;5.00;;
16954;SDS011;8594;52.052;8.354;2022-12-18T10:09:26;7.97;;;4.60;;
16954;SDS011;8594;52.052;8.354;2022-12-18T10:12:05;9.70;;;4.50;;
16954;SDS011;8594;52.052;8.354;2022-12-18T10:14:43;10.13;;;5.30;;
16954;SDS011;8594;52.052;8.354;2022-12-18T10:17:23;8.40;;;4.57;;
16954;SDS011;8594;52.052;8.354;2022-12-18T10:20:05;10.93;;;4.87;;
16954;SDS011;8594;52.052;8.354;2022-12-18T10:22:43;9.07;;;4.50;;
16954;SDS011;8594;52.052;8.354;2022-12-18T10:25:23;12.73;;;5.07;;
16954;SDS011;8594;52.052;8.354;2022-12-18T10:27:57;13.13;;;4.80;;
16954;SDS011;8594;52.052;8.354;2022-12-18T10:30:35;11.40;;;5.17;;
16954;SDS011;8594;52.052;8.354;2022-12-18T10:33:05;7.77;;;4.40;;
16954;SDS011;8594;52.052;8.354;2022-12-18T10:35:38;10.97;;;5.37;;
16954;SDS011;8594;52.052;8.354;2022-12-18T10:38:20;10.37;;;4.87;;
16954;SDS011;8594;52.052;8.354;2022-12-18T10:40:51;12.70;;;6.07;;
16954;SDS011;8594;52.052;8.354;2022-12-18T10:43:22;10.57;;;4.70;;
16954;SDS011;8594;52.052;8.354;2022-12-18T10:46:02;7.03;;;3.90;;
16954;SDS011;8594;52.052;8.354;2022-12-18T10:48:52;9.83;;;4.70;;
16954;SDS011;8594;52.052;8.354;2022-12-18T10:51:24;7.53;;;4.07;;
16954;SDS011;8594;52.052;8.354;2022-12-18T10:53:55;10.30;;;4.70;;
16954;SDS011;8594;52.052;8.354;2022-12-18T10:56:27;9.50;;;4.00;;
16954;SDS011;8594;52.052;8.354;2022-12-18T10:58:59;7.83;;;4.40;;
16954;SDS011;8594;52.052;8.354;2022-12-18T11:01:31;8.13;;;4.57;;
16954;SDS011;8594;52.052;8.354;2022-12-18T11:04:16;12.07;;;4.43;;
16954;SDS011;8594;52.052;8.354;2022-12-18T11:06:57;9.40;;;3.90;;
16954;SDS011;8594;52.052;8.354;2022-12-18T11:09:27;9.77;;;4.27;;
16954;SDS011;8594;52.052;8.354;2022-12-18T11:11:57;9.33;;;4.37;;
16954;SDS011;8594;52.052;8.354;2022-12-18T11:14:28;9.77;;;4.37;;
16954;SDS011;8594;52.052;8.354;2022-12-18T11:16:58;9.27;;;4.57;;
16954;SDS011;8594;52.052;8.354;2022-12-18T11:19:31;8.17;;;4.50;;
16954;SDS011;8594;52.052;8.354;2022-12-18T11:22:03;9.10;;;4.50;;
16954;SDS011;8594;52.052;8.354;2022-12-18T11:24:51;8.60;;;4.00;;
16954;SDS011;8594;52.052;8.354;2022-12-18T11:27:23;10.30;;;4.00;;
16954;SDS011;8594;52.052;8.354;2022-12-18T11:29:50;10.23;;;3.90;;
16954;SDS011;8594;52.052;8.354;2022-12-18T11:32:23;9.67;;;4.57;;
16954;SDS011;8594;52.052;8.354;2022-12-18T11:35:04;10.00;;;4.50;;
16954;SDS011;8594;52.052;8.354;2022-12-18T11:37:46;10.37;;;5.17;;
16954;SDS011;8594;52.052;8.354;2022-12-18T11:40:25;9.00;;;4.57;;
16954;SDS011;8594;52.052;8.354;2022-12-18T11:43:02;9.57;;;3.83;;
16954;SDS011;8594;52.052;8.354;2022-12-18T11:45:40;9.27;;;5.27;;
16954;SDS011;8594;52.052;8.354;2022-12-18T11:48:16;7.17;;;3.93;;
16954;SDS011;8594;52.052;8.354;2022-12-18T11:50:51;8.23;;;4.13;;
16954;SDS011;8594;52.052;8.354;2022-12-18T11:53:22;8.23;;;4.40;;
16954;SDS011;8594;52.052;8.354;2022-12-18T11:55:54;8.57;;;4.20;;
16954;SDS011;8594;52.052;8.354;2022-12-18T11:58:43;9.47;;;4.43;;
16954;SDS011;8594;52.052;8.354;2022-12-18T12:01:18;8.80;;;4.20;;
16954;SDS011;8594;52.052;8.354;2022-12-18T12:04:13;10.70;;;5.07;;
16954;SDS011;8594;52.052;8.354;2022-12-18T12:07:06;8.07;;;4.33;;
16954;SDS011;8594;52.052;8.354;2022-12-18T12:10:03;7.47;;;3.80;;
16954;SDS011;8594;52.052;8.354;2022-12-18T12:12:48;10.43;;;4.50;;
16954;SDS011;8594;52.052;8.354;2022-12-18T12:15:38;11.23;;;4.87;;
16954;SDS011;8594;52.052;8.354;2022-12-18T12:18:18;7.57;;;3.87;;
16954;SDS011;8594;52.052;8.354;2022-12-18T12:20:59;7.33;;;3.93;;
16954;SDS011;8594;52.052;8.354;2022-12-18T12:23:39;8.13;;;4.00;;
16954;SDS011;8594;52.052;8.354;2022-12-18T12:26:22;7.20;;;3.83;;
16954;SDS011;8594;52.052;8.354;2022-12-18T12:29:13;8.40;;;4.00;;
16954;SDS011;8594;52.052;8.354;2022-12-18T12:32:03;11.33;;;4.80;;
16954;SDS011;8594;52.052;8.354;2022-12-18T12:34:49;9.43;;;4.20;;
16954;SDS011;8594;52.052;8.354;2022-12-18T12:37:35;10.33;;;4.00;;
16954;SDS011;8594;52.052;8.354;2022-12-18T12:40:17;8.33;;;4.30;;
16954;SDS011;8594;52.052;8.354;2022-12-18T12:42:47;14.00;;;4.80;;
16954;SDS011;8594;52.052;8.354;2022-12-18T12:45:42;11.53;;;3.90;;
16954;SDS011;8594;52.052;8.354;2022-12-18T12:48:18;7.70;;;3.57;;
16954;SDS011;8594;52.052;8.354;2022-12-18T12:51:07;9.23;;;3.97;;
16954;SDS011;8594;52.052;8.354;2022-12-18T12:53:43;10.20;;;4.03;;
16954;SDS011;8594;52.052;8.354;2022-12-18T12:56:12;6.20;;;4.23;;
16954;SDS011;8594;52.052;8.354;2022-12-18T12:58:49;9.83;;;3.80;;
16954;SDS011;8594;52.052;8.354;2022-12-18T13:01:28;9.30;;;4.23;;
16954;SDS011;8594;52.052;8.354;2022-12-18T13:04:08;7.90;;;4.33;;
16954;SDS011;8594;52.052;8.354;2022-12-18T13:06:48;5.50;;;3.73;;
16954;SDS011;8594;52.052;8.354;2022-12-18T13:09:29;5.33;;;3.20;;
16954;SDS011;8594;52.052;8.354;2022-12-18T13:12:01;6.17;;;3.77;;
16954;SDS011;8594;52.052;8.354;2022-12-18T13:14:49;10.13;;;4.13;;
16954;SDS011;8594;52.052;8.354;2022-12-18T13:17:27;6.70;;;3.70;;
16954;SDS011;8594;52.052;8.354;2022-12-18T13:20:07;13.17;;;3.77;;
16954;SDS011;8594;52.052;8.354;2022-12-18T13:22:40;11.57;;;3.50;;
16954;SDS011;8594;52.052;8.354;2022-12-18T13:25:30;8.67;;;4.20;;
16954;SDS011;8594;52.052;8.354;2022-12-18T13:28:02;9.40;;;4.47;;
16954;SDS011;8594;52.052;8.354;2022-12-18T13:33:37;17.83;;;4.93;;
16954;SDS011;8594;52.052;8.354;2022-12-18T13:36:12;10.10;;;4.40;;
16954;SDS011;8594;52.052;8.354;2022-12-18T13:39:10;11.27;;;3.50;;
16954;SDS011;8594;52.052;8.354;2022-12-18T13:41:52;10.13;;;4.00;;
16954;SDS011;8594;52.052;8.354;2022-12-18T13:45:00;14.27;;;3.80;;
16954;SDS011;8594;52.052;8.354;2022-12-18T13:47:31;13.93;;;3.87;;
16954;SDS011;8594;52.052;8.354;2022-12-18T13:50:00;10.97;;;3.57;;
16954;SDS011;8594;52.052;8.354;2022-12-18T13:52:37;8.03;;;3.70;;
16954;SDS011;8594;52.052;8.354;2022-12-18T13:55:07;19.63;;;3.47;;
16954;SDS011;8594;52.052;8.354;2022-12-18T13:57:43;6.43;;;3.23;;
16954;SDS011;8594;52.052;8.354;2022-12-18T14:00:22;11.07;;;3.60;;
16954;SDS011;8594;52.052;8.354;2022-12-18T14:02:55;18.50;;;3.43;;
16954;SDS011;8594;52.052;8.354;2022-12-18T14:05:24;28.90;;;3.90;;
16954;SDS011;8594;52.052;8.354;2022-12-18T14:07:52;28.47;;;5.13;;
16954;SDS011;8594;52.052;8.354;2022-12-18T14:10:26;7.80;;;4.20;;
16954;SDS011;8594;52.052;8.354;2022-12-18T14:12:53;35.03;;;4.80;;
16954;SDS011;8594;52.052;8.354;2022-12-18T14:15:25;18.73;;;4.13;;
16954;SDS011;8594;52.052;8.354;2022-12-18T14:18:01;12.43;;;4.73;;
16954;SDS011;8594;52.052;8.354;2022-12-18T14:20:43;8.63;;;3.47;;
16954;SDS011;8594;52.052;8.354;2022-12-18T14:23:24;16.03;;;4.30;;
16954;SDS011;8594;52.052;8.354;2022-12-18T14:25:55;14.70;;;4.17;;
16954;SDS011;8594;52.052;8.354;2022-12-18T14:28:22;9.87;;;4.33;;
16954;SDS011;8594;52.052;8.354;2022-12-18T14:30:51;15.83;;;4.57;;
16954;SDS011;8594;52.052;8.354;2022-12-18T14:33:21;14.33;;;4.53;;
16954;SDS011;8594;52.052;8.354;2022-12-18T14:35:57;11.03;;;4.60;;
16954;SDS011;8594;52.052;8.354;2022-12-18T14:38:28;7.93;;;3.77;;
16954;SDS011;8594;52.052;8.354;2022-12-18T14:40:58;12.03;;;4.23;;
16954;SDS011;8594;52.052;8.354;2022-12-18T14:43:27;8.37;;;4.33;;
16954;SDS011;8594;52.052;8.354;2022-12-18T14:45:57;18.80;;;4.37;;
16954;SDS011;8594;52.052;8.354;2022-12-18T14:48:33;12.03;;;4.17;;
16954;SDS011;8594;52.052;8.354;2022-12-18T14:51:05;11.07;;;4.23;;
16954;SDS011;8594;52.052;8.354;2022-12-18T14:53:42;14.33;;;4.17;;
16954;SDS011;8594;52.052;8.354;2022-12-18T14:56:15;11.70;;;4.50;;
16954;SDS011;8594;52.052;8.354;2022-12-18T14:58:49;12.30;;;5.60;;
16954;SDS011;8594;52.052;8.354;2022-12-18T15:01:21;10.17;;;4.27;;
16954;SDS011;8594;52.052;8.354;2022-12-18T15:03:53;11.13;;;4.33;;
16954;SDS011;8594;52.052;8.354;2022-12-18T15:06:26;20.40;;;4.60;;
16954;SDS011;8594;52.052;8.354;2022-12-18T15:08:58;18.10;;;4.93;;
16954;SDS011;8594;52.052;8.354;2022-12-18T15:11:29;9.17;;;3.93;;
16954;SDS011;8594;52.052;8.354;2022-12-18T15:14:21;18.00;;;4.93;;
16954;SDS011;8594;52.052;8.354;2022-12-18T15:16:51;11.17;;;4.57;;
16954;SDS011;8594;52.052;8.354;2022-12-18T15:19:21;13.87;;;4.33;;
16954;SDS011;8594;52.052;8.354;2022-12-18T15:21:53;11.50;;;4.80;;
16954;SDS011;8594;52.052;8.354;2022-12-18T15:24:23;11.60;;;4.70;;